Time;durP1;ratioP1;P1;durP2;ratioP2;P2;SDS_P1;SDS_P2;PMS_P1;PMS_P2;Temp;Humidity;BMP_temperature;BMP_pressure;BME280_temperature;BME280_humidity;BME280_pressure;Samples;Min_cycle;Max_cycle;Signal;HPM_P1;HPM_P2
2021/12/10 00:00:13;;;;;;;40.15;17.67;;;;;;;3.20;nan;99595.13;5016206;28;20487;-69
2021/12/10 00:03:01;;;;;;;39.55;17.17;;;;;;;3.41;nan;99635.81;5026511;28;20045;-69
2021/12/10 00:06:23;;;;;;;39.30;16.90;;;;;;;3.45;nan;99638.84;5031599;28;20090;-69
2021/12/10 00:09:20;;;;;;;34.10;16.00;;;;;;;3.40;nan;99617.81;5013548;28;20046;-69
2021/12/10 00:12:13;;;;;;;34.83;16.30;;;;;;;3.43;nan;99621.81;5045174;28;20499;-69
2021/12/10 00:15:02;;;;;;;35.70;16.42;;;;;;;3.49;nan;99644.44;5015474;28;20403;-69
2021/12/10 00:17:49;;;;;;;;;;;;;;;3.49;nan;99634.81;5031625;28;20033;-69
2021/12/10 00:20:37;;;;;;;33.38;15.52;;;;;;;3.48;nan;99641.03;5021508;28;20023;-69
2021/12/10 00:23:24;;;;;;;37.72;16.85;;;;;;;3.48;nan;99661.84;5032420;28;20095;-69
2021/12/10 00:26:10;;;;;;;34.42;15.80;;;;;;;3.44;nan;99662.44;5032715;28;20037;-69
2021/12/10 00:29:02;;;;;;;39.03;17.30;;;;;;;3.46;nan;99660.44;5025915;28;20087;-69
2021/12/10 00:31:53;;;;;;;39.35;17.52;;;;;;;3.34;nan;99655.00;5028135;28;20487;-69
2021/12/10 00:34:44;;;;;;;35.88;16.70;;;;;;;3.42;nan;99673.03;5031880;28;20048;-69
2021/12/10 00:37:30;;;;;;;37.40;16.70;;;;;;;3.41;nan;99672.25;5024461;28;20026;-69
2021/12/10 00:40:19;;;;;;;39.72;16.60;;;;;;;3.38;nan;99675.25;5029825;28;20068;-69
2021/12/10 00:43:05;;;;;;;36.40;15.65;;;;;;;3.02;nan;99614.88;5032015;28;20510;-69
2021/12/10 00:45:51;;;;;;;37.92;16.33;;;;;;;3.30;nan;99675.41;5031460;28;20029;-69
2021/12/10 00:48:37;;;;;;;33.97;15.68;;;;;;;3.32;nan;99676.00;5031277;28;20040;-67
2021/12/10 00:51:23;;;;;;;36.70;17.25;;;;;;;3.31;nan;99664.00;5031686;28;20116;-67
2021/12/10 00:54:11;;;;;;;38.17;16.67;;;;;;;3.34;nan;99686.25;5031828;28;20655;-67
2021/12/10 00:56:57;;;;;;;36.63;16.80;;;;;;;3.33;nan;99680.25;5027643;28;20041;-67
2021/12/10 00:59:46;;;;;;;37.28;16.45;;;;;;;3.32;nan;99685.63;5031197;28;20033;-67
2021/12/10 01:02:32;;;;;;;36.42;16.52;;;;;;;3.28;nan;99674.81;5027637;28;20157;-67
2021/12/10 01:05:18;;;;;;;33.53;16.70;;;;;;;3.32;nan;99680.41;5032329;28;20063;-67
2021/12/10 01:08:05;;;;;;;40.72;17.75;;;;;;;3.26;nan;99683.81;5017394;28;20045;-67
2021/12/10 01:10:57;;;;;;;38.58;17.88;;;;;;;3.24;nan;99685.81;5019384;28;20037;-67
2021/12/10 01:13:47;;;;;;;41.10;17.45;;;;;;;3.19;nan;99691.59;5025346;28;20041;-67
2021/12/10 01:28:20;;;;;;;52.55;20.92;;;;;;;3.22;nan;99680.78;5028721;28;20041;-67
2021/12/10 01:31:06;;;;;;;50.53;21.45;;;;;;;3.24;nan;99704.03;5016503;28;20041;-67
2021/12/10 01:33:53;;;;;;;55.38;21.63;;;;;;;3.24;nan;99694.41;5015957;28;20138;-66
2021/12/10 01:36:40;;;;;;;57.63;22.13;;;;;;;3.19;nan;99683.78;5029260;28;20199;-66
2021/12/10 01:39:29;;;;;;;59.25;21.42;;;;;;;3.17;nan;99676.16;5030476;28;20582;-66
2021/12/10 01:42:31;;;;;;;62.28;21.88;;;;;;;3.20;nan;99688.78;5021113;28;20491;-67
2021/12/10 01:45:28;;;;;;;75.10;22.25;;;;;;;3.19;nan;99675.97;5028585;28;20099;-67
2021/12/10 01:48:25;;;;;;;69.43;24.70;;;;;;;3.04;nan;99663.13;5018707;28;20100;-67
2021/12/10 01:51:14;;;;;;;78.45;25.05;;;;;;;3.14;nan;99671.34;5013009;28;20033;-67
2021/12/10 01:54:08;;;;;;;72.13;25.33;;;;;;;3.14;nan;99671.34;5022675;28;20430;-67
2021/12/10 01:56:56;;;;;;;76.10;23.90;;;;;;;3.15;nan;99659.16;5028028;28;20040;-67
2021/12/10 01:59:44;;;;;;;78.50;23.80;;;;;;;3.12;nan;99655.13;5035414;28;20048;-67
2021/12/10 02:02:35;;;;;;;79.97;24.42;;;;;;;3.13;nan;99664.53;5026218;28;20073;-66
2021/12/10 02:05:21;;;;;;;78.03;25.15;;;;;;;3.06;nan;99668.13;5035284;28;20037;-66
2021/12/10 02:08:08;;;;;;;71.47;23.70;;;;;;;2.82;nan;99612.19;5032811;28;20124;-67
2021/12/10 02:10:54;;;;;;;67.60;23.13;;;;;;;3.07;nan;99648.94;5034147;28;20454;-67
2021/12/10 02:13:40;;;;;;;64.93;22.30;;;;;;;3.07;nan;99646.31;5033938;28;20037;-67
2021/12/10 02:16:26;;;;;;;60.60;21.42;;;;;;;3.01;nan;99637.47;5030101;28;20049;-66
2021/12/10 02:19:14;;;;;;;58.28;21.00;;;;;;;3.06;nan;99653.31;5015044;28;20500;-67
2021/12/10 02:22:00;;;;;;;55.95;20.50;;;;;;;3.02;nan;99638.28;5019444;28;20073;-67
2021/12/10 02:24:46;;;;;;;58.70;21.67;;;;;;;3.01;nan;99634.88;5015139;28;20099;-67
2021/12/10 02:27:32;;;;;;;58.60;22.60;;;;;;;3.04;nan;99647.50;5028434;28;20092;-67
2021/12/10 02:30:19;;;;;;;1922.78;455.63;;;;;;;3.01;nan;99634.88;5031400;28;20037;-67
2021/12/10 02:33:06;;;;;;;1999.90;873.80;;;;;;;3.38;nan;99645.81;5029901;28;20550;-67
2021/12/10 02:35:52;;;;;;;116.53;31.90;;;;;;;3.49;nan;99624.41;5031599;28;20056;-67
2021/12/10 02:38:47;;;;;;;84.55;25.85;;;;;;;3.56;nan;99647.84;5023028;28;20095;-66
2021/12/10 02:41:34;;;;;;;69.90;23.52;;;;;;;3.41;nan;99642.81;5033422;28;20037;-67
2021/12/10 02:44:26;;;;;;;57.15;21.42;;;;;;;3.40;nan;99654.25;5034624;28;20515;-66
2021/12/10 02:47:12;;;;;;;46.88;18.77;;;;;;;3.24;nan;99639.78;5031861;28;20030;-67
2021/12/10 02:49:58;;;;;;;47.47;20.00;;;;;;;3.22;nan;99635.75;5024756;28;20425;-67
2021/12/10 02:52:44;;;;;;;49.58;20.08;;;;;;;3.13;nan;99633.31;5016954;28;20377;-68
2021/12/10 02:55:31;;;;;;;51.60;20.92;;;;;;;3.16;nan;99640.75;5020998;28;20033;-67
2021/12/10 02:58:17;;;;;;;51.83;20.48;;;;;;;3.17;nan;99644.94;5033466;28;20076;-67
2021/12/10 03:01:08;;;;;;;55.30;20.05;;;;;;;3.18;nan;99648.34;5033382;28;20050;-67
2021/12/10 03:03:54;;;;;;;46.60;19.98;;;;;;;3.13;nan;99632.53;5031949;28;20377;-67
2021/12/10 03:06:45;;;;;;;50.08;20.88;;;;;;;3.10;nan;99631.13;5031081;28;20037;-67
2021/12/10 03:09:30;;;;;;;48.25;20.33;;;;;;;3.18;nan;99630.13;5032209;28;20519;-67
2021/12/10 03:12:20;;;;;;;45.17;18.60;;;;;;;3.19;nan;99626.56;5017273;28;20065;-67
2021/12/10 03:15:07;;;;;;;48.45;19.92;;;;;;;3.20;nan;99620.34;5028390;28;20041;-67
2021/12/10 03:17:53;;;;;;;48.72;19.33;;;;;;;3.16;nan;99609.53;5033584;28;20507;-66
2021/12/10 03:20:40;;;;;;;46.65;19.70;;;;;;;3.25;nan;99601.53;5033992;28;20503;-65
2021/12/10 03:23:25;;;;;;;44.35;19.35;;;;;;;3.17;nan;99595.53;5023570;28;20034;-67
2021/12/10 03:26:14;;;;;;;49.45;19.92;;;;;;;3.27;nan;99604.75;5016428;28;20172;-67
2021/12/10 03:29:00;;;;;;;34.65;14.55;;;;;;;3.26;nan;99603.16;5034134;28;20033;-67
2021/12/10 03:31:46;;;;;;;46.58;20.00;;;;;;;3.26;nan;99606.56;5029115;28;20068;-67
2021/12/10 03:34:33;;;;;;;47.55;19.60;;;;;;;3.21;nan;99595.94;5029239;28;20065;-66
2021/12/10 03:37:19;;;;;;;44.83;19.10;;;;;;;3.25;nan;99611.94;5025936;28;20394;-67
2021/12/10 03:40:10;;;;;;;41.58;18.75;;;;;;;3.24;nan;99615.56;5022296;28;20038;-65
2021/12/10 03:42:58;;;;;;;47.97;19.92;;;;;;;3.25;nan;99632.75;5030157;28;20471;-66
2021/12/10 03:45:47;;;;;;;47.80;21.58;;;;;;;3.23;nan;99619.16;5020095;28;20430;-66
2021/12/10 03:48:41;;;;;;;48.28;19.88;;;;;;;3.25;nan;99619.75;5047792;28;20036;-67
2021/12/10 03:51:26;;;;;;;45.50;21.08;;;;;;;3.14;nan;99606.31;5043175;28;20037;-67
2021/12/10 03:54:16;;;;;;;41.80;19.52;;;;;;;3.13;nan;99602.09;5032053;28;20594;-67
2021/12/10 03:57:03;;;;;;;42.47;19.50;;;;;;;3.17;nan;99613.72;5032268;28;20056;-67
2021/12/10 03:59:48;;;;;;;44.83;20.30;;;;;;;3.21;nan;99619.34;5030639;28;20044;-67
2021/12/10 04:02:34;;;;;;;48.08;20.05;;;;;;;3.19;nan;99619.53;5028710;28;20045;-66
2021/12/10 04:05:21;;;;;;;42.15;19.08;;;;;;;3.19;nan;99622.16;5033707;28;20035;-66
2021/12/10 04:08:07;;;;;;;44.33;19.63;;;;;;;3.22;nan;99628.75;5033528;28;20077;-66
2021/12/10 04:10:54;;;;;;;41.40;19.05;;;;;;;3.10;nan;99607.69;5029446;28;20495;-66
2021/12/10 04:13:39;;;;;;;42.85;19.60;;;;;;;3.19;nan;99626.56;5024245;28;20030;-67
2021/12/10 04:16:27;;;;;;;48.25;21.88;;;;;;;3.10;nan;99614.72;5033966;28;20036;-67
2021/12/10 04:19:14;;;;;;;45.83;19.77;;;;;;;3.17;nan;99625.94;5025753;28;20091;-67
2021/12/10 04:22:02;;;;;;;46.75;20.13;;;;;;;3.21;nan;99624.56;5031791;28;20120;-65
2021/12/10 04:24:49;;;;;;;41.25;19.42;;;;;;;3.09;nan;99620.91;5028560;28;20025;-67
2021/12/10 04:27:35;;;;;;;43.53;20.38;;;;;;;3.06;nan;99613.50;5025535;28;20041;-66
2021/12/10 04:30:22;;;;;;;44.22;19.48;;;;;;;3.09;nan;99623.50;5017298;28;20043;-66
2021/12/10 04:33:09;;;;;;;40.28;19.02;;;;;;;3.10;nan;99625.91;5024468;28;20037;-66
2021/12/10 04:35:58;;;;;;;63.67;22.35;;;;;;;3.12;nan;99636.13;5027911;28;20073;-66
2021/12/10 04:38:46;;;;;;;45.30;21.05;;;;;;;3.11;nan;99640.53;5021297;28;20033;-66
2021/12/10 04:41:32;;;;;;;45.58;21.67;;;;;;;3.01;nan;99632.28;5013822;28;20042;-67
2021/12/10 04:44:18;;;;;;;54.00;23.38;;;;;;;3.03;nan;99658.09;5026143;28;20044;-65
2021/12/10 04:47:04;;;;;;;51.47;22.90;;;;;;;3.04;nan;99663.13;5031441;28;20037;-66
2021/12/10 04:49:50;;;;;;;51.72;22.73;;;;;;;2.93;nan;99653.25;5018128;28;20037;-67
2021/12/10 04:52:37;;;;;;;49.63;22.65;;;;;;;2.92;nan;99655.06;5014705;28;20030;-67
2021/12/10 04:55:22;;;;;;;55.85;22.77;;;;;;;2.98;nan;99663.88;5015627;28;20403;-66
2021/12/10 04:58:09;;;;;;;228.27;34.08;;;;;;;2.92;nan;99664.63;5016208;28;20030;-66
2021/12/10 05:00:54;;;;;;;60.60;24.00;;;;;;;2.88;nan;99660.84;5023370;28;20068;-67
2021/12/10 05:03:40;;;;;;;60.65;25.02;;;;;;;2.94;nan;99670.47;5028302;28;20034;-67
2021/12/10 05:06:27;;;;;;;59.40;24.42;;;;;;;2.92;nan;99662.03;5012614;28;20038;-66
2021/12/10 05:09:15;;;;;;;72.15;28.15;;;;;;;2.90;nan;99653.66;5031857;28;20103;-67
2021/12/10 05:12:01;;;;;;;75.60;28.85;;;;;;;2.91;nan;99648.25;5026963;28;20029;-66
2021/12/10 05:14:47;;;;;;;77.80;28.25;;;;;;;2.88;nan;99627.84;5029661;28;20041;-66
2021/12/10 05:17:34;;;;;;;67.68;27.88;;;;;;;2.95;nan;99638.28;5025121;28;20041;-66
2021/12/10 05:20:26;;;;;;;70.03;27.38;;;;;;;2.96;nan;99632.06;5030833;28;20386;-66
2021/12/10 05:23:14;;;;;;;68.78;28.00;;;;;;;2.91;nan;99622.25;5039878;28;20084;-66
2021/12/10 05:26:00;;;;;;;63.85;25.58;;;;;;;2.89;nan;99624.22;5045451;28;20042;-66
2021/12/10 05:28:46;;;;;;;65.20;26.10;;;;;;;2.94;nan;99634.06;5031645;28;20522;-66
2021/12/10 05:31:33;;;;;;;75.07;29.95;;;;;;;2.89;nan;99626.81;5030516;28;20051;-66
2021/12/10 05:34:19;;;;;;;64.50;26.70;;;;;;;2.89;nan;99628.63;5028587;28;20041;-65
2021/12/10 05:37:06;;;;;;;61.88;26.23;;;;;;;2.82;nan;99614.81;5029572;28;20079;-65
2021/12/10 05:39:52;;;;;;;58.40;24.85;;;;;;;2.83;nan;99627.63;5025195;28;20095;-66
2021/12/10 05:42:39;;;;;;;59.88;25.60;;;;;;;2.86;nan;99618.63;5017596;28;20179;-66
2021/12/10 05:45:25;;;;;;;64.15;26.15;;;;;;;2.87;nan;99621.00;5029507;28;20033;-67
2021/12/10 05:48:11;;;;;;;57.40;26.17;;;;;;;2.83;nan;99612.00;5030230;28;20034;-67
2021/12/10 05:50:58;;;;;;;56.00;24.92;;;;;;;2.89;nan;99636.44;5030664;28;20120;-67
2021/12/10 05:53:43;;;;;;;58.67;24.73;;;;;;;2.87;nan;99635.81;5028545;28;20104;-66
2021/12/10 05:56:29;;;;;;;51.65;22.55;;;;;;;2.82;nan;99627.78;5017378;28;20198;-66
2021/12/10 05:59:15;;;;;;;55.88;24.38;;;;;;;2.85;nan;99635.19;5030076;28;20214;-67
2021/12/10 06:02:01;;;;;;;52.78;23.05;;;;;;;2.88;nan;99630.44;5031065;28;20045;-66
2021/12/10 06:04:47;;;;;;;49.50;22.27;;;;;;;2.85;nan;99643.00;5027258;28;20037;-68
2021/12/10 06:07:33;;;;;;;44.55;20.40;;;;;;;2.80;nan;99627.97;5029998;28;20060;-70
2021/12/10 06:10:21;;;;;;;44.97;21.00;;;;;;;2.84;nan;99636.22;5024990;28;20032;-69
2021/12/10 06:13:08;;;;;;;47.97;21.75;;;;;;;2.82;nan;99640.81;5030929;28;20021;-70
2021/12/10 06:15:54;;;;;;;128.50;25.45;;;;;;;2.77;nan;99628.38;5029845;28;20633;-69
2021/12/10 06:18:41;;;;;;;49.58;22.67;;;;;;;2.84;nan;99636.22;5029231;28;20053;-69
2021/12/10 06:21:28;;;;;;;53.33;22.35;;;;;;;2.82;nan;99641.59;5029611;28;20503;-69
2021/12/10 06:24:14;;;;;;;53.53;23.00;;;;;;;2.79;nan;99633.41;5030907;28;20112;-70
2021/12/10 06:27:00;;;;;;;64.65;25.33;;;;;;;2.75;nan;99627.75;5054050;28;20037;-69
2021/12/10 06:29:46;;;;;;;65.97;25.73;;;;;;;2.75;nan;99626.00;5027911;28;20034;-70
2021/12/10 06:32:32;;;;;;;66.10;25.75;;;;;;;2.75;nan;99619.97;5026887;28;20033;-67
2021/12/10 06:35:18;;;;;;;75.47;27.60;;;;;;;2.80;nan;99625.38;5025434;28;20038;-67
2021/12/10 06:38:04;;;;;;;72.93;28.50;;;;;;;2.80;nan;99609.78;5027212;28;20037;-64
2021/12/10 06:40:51;;;;;;;120.80;32.83;;;;;;;2.72;nan;99605.56;5029136;28;20025;-66
2021/12/10 06:43:37;;;;;;;80.97;27.80;;;;;;;2.74;nan;99619.16;5026890;28;20033;-67
2021/12/10 06:46:23;;;;;;;90.18;30.85;;;;;;;2.82;nan;99614.81;5027019;28;20121;-67
2021/12/10 06:49:09;;;;;;;83.95;28.35;;;;;;;2.77;nan;99623.97;5032415;28;20039;-67
2021/12/10 06:51:55;;;;;;;87.97;30.65;;;;;;;2.77;nan;99621.38;5027025;28;20052;-67
2021/12/10 06:54:40;;;;;;;108.80;31.30;;;;;;;2.70;nan;99617.94;5033338;28;20609;-66
2021/12/10 06:57:26;;;;;;;82.63;29.15;;;;;;;2.74;nan;99626.97;5016010;28;20045;-68
2021/12/10 07:00:23;;;;;;;109.47;36.13;;;;;;;2.71;nan;99629.97;5031413;28;20037;-67
2021/12/10 07:03:11;;;;;;;82.82;30.45;;;;;;;2.68;nan;99629.53;5030781;28;20048;-68
2021/12/10 07:06:00;;;;;;;89.85;30.63;;;;;;;2.72;nan;99636.75;5027375;28;20092;-67
2021/12/10 07:08:47;;;;;;;94.20;31.02;;;;;;;2.71;nan;99637.75;5026405;28;20045;-67
2021/12/10 07:11:35;;;;;;;93.88;31.60;;;;;;;2.67;nan;99636.53;5025953;28;20030;-67
2021/12/10 07:14:21;;;;;;;104.78;35.08;;;;;;;2.67;nan;99636.53;5029358;28;20033;-67
2021/12/10 07:17:07;;;;;;;96.10;31.83;;;;;;;2.68;nan;99635.56;5021097;28;20108;-66
2021/12/10 07:19:53;;;;;;;106.40;39.58;;;;;;;2.68;nan;99640.75;5020765;28;20030;-68
2021/12/10 07:22:39;;;;;;;93.85;32.70;;;;;;;2.69;nan;99650.13;5024496;28;20042;-70
2021/12/10 07:25:26;;;;;;;99.95;34.22;;;;;;;2.67;nan;99644.31;5023189;28;20479;-70
2021/12/10 07:28:11;;;;;;;99.55;34.13;;;;;;;2.65;nan;99643.72;5022380;28;20517;-69
2021/12/10 07:30:58;;;;;;;99.63;35.90;;;;;;;2.67;nan;99652.13;5022949;28;21815;-70
2021/12/10 07:33:44;;;;;;;105.82;34.72;;;;;;;2.68;nan;99638.16;5024972;28;20087;-70
2021/12/10 07:36:30;;;;;;;93.32;34.03;;;;;;;2.67;nan;99628.72;5017459;28;20404;-69
2021/12/10 07:39:16;;;;;;;99.03;35.97;;;;;;;2.64;nan;99626.53;5017297;28;20037;-69
2021/12/10 07:42:02;;;;;;;88.38;32.17;;;;;;;2.75;nan;99645.97;5023832;28;20411;-70
2021/12/10 07:44:50;;;;;;;90.43;33.33;;;;;;;2.75;nan;99644.19;5009801;28;20124;-69
2021/12/10 07:47:37;;;;;;;92.68;34.05;;;;;;;2.79;nan;99654.19;5026180;28;20053;-68
2021/12/10 07:50:32;;;;;;;88.00;33.55;;;;;;;2.79;nan;99652.38;5021223;28;20080;-68
2021/12/10 07:53:19;;;;;;;83.95;33.92;;;;;;;2.72;nan;99635.94;5028195;28;20029;-68
2021/12/10 07:56:07;;;;;;;81.22;31.65;;;;;;;2.77;nan;99643.97;5022344;28;20033;-69
2021/12/10 07:58:54;;;;;;;73.00;29.08;;;;;;;2.75;nan;99638.97;5034891;28;20034;-69
2021/12/10 08:01:40;;;;;;;76.05;29.58;;;;;;;2.74;nan;99642.56;5030025;28;20057;-69
2021/12/10 08:04:26;;;;;;;71.88;28.83;;;;;;;2.71;nan;99636.97;5030690;28;20151;-69
2021/12/10 08:07:13;;;;;;;71.95;28.23;;;;;;;2.73;nan;99638.38;5024997;28;20250;-69
2021/12/10 08:09:59;;;;;;;70.22;28.35;;;;;;;2.70;nan;99638.72;5029565;28;20094;-67
2021/12/10 08:12:44;;;;;;;76.30;30.35;;;;;;;2.67;nan;99633.94;5020801;28;20039;-69
2021/12/10 08:15:31;;;;;;;75.38;28.60;;;;;;;2.70;nan;99632.75;5021065;28;20120;-67
2021/12/10 08:18:18;;;;;;;77.25;30.77;;;;;;;2.69;nan;99633.75;5023399;28;20048;-69
2021/12/10 08:21:06;;;;;;;81.68;34.63;;;;;;;2.65;nan;99638.50;5023284;28;20107;-68
2021/12/10 08:23:53;;;;;;;82.95;31.63;;;;;;;2.67;nan;99638.31;5023647;28;20125;-68
2021/12/10 08:26:39;;;;;;;70.07;29.33;;;;;;;2.64;nan;99623.91;5022314;28;20034;-69
2021/12/10 08:29:26;;;;;;;69.45;27.75;;;;;;;2.65;nan;99635.91;5024568;28;20043;-70
2021/12/10 08:32:15;;;;;;;64.53;26.63;;;;;;;2.70;nan;99643.13;5019076;28;20037;-69
2021/12/10 08:35:05;;;;;;;69.40;28.50;;;;;;;2.68;nan;99645.94;5025104;28;20135;-70
2021/12/10 08:37:52;;;;;;;67.07;27.58;;;;;;;2.57;nan;99628.28;5022187;28;20044;-69
2021/12/10 08:40:43;;;;;;;71.03;30.48;;;;;;;2.68;nan;99635.56;5022124;28;20042;-69
2021/12/10 08:43:30;;;;;;;80.85;31.20;;;;;;;2.69;nan;99639.75;5030246;28;20507;-71
2021/12/10 08:46:17;;;;;;;71.72;30.55;;;;;;;2.74;nan;99637.38;5023392;28;20045;-67
2021/12/10 08:49:04;;;;;;;75.00;31.00;;;;;;;2.77;nan;99638.78;5020739;28;20042;-67
2021/12/10 08:51:54;;;;;;;69.43;29.88;;;;;;;2.77;nan;99639.56;5028963;28;20120;-69
2021/12/10 08:54:39;;;;;;;;;;;;;;;2.79;nan;99634.19;5012258;28;20045;-70
2021/12/10 08:57:26;;;;;;;65.22;26.65;;;;;;;2.74;nan;99626.97;5022202;28;19917;-69
2021/12/10 09:00:13;;;;;;;64.68;27.25;;;;;;;2.81;nan;99629.59;5026676;28;20518;-69
2021/12/10 09:03:00;;;;;;;67.55;26.73;;;;;;;2.82;nan;99635.59;5026930;28;20457;-68
2021/12/10 09:05:46;;;;;;;63.67;26.38;;;;;;;2.80;nan;99633.19;5035599;28;20040;-70
2021/12/10 09:08:32;;;;;;;59.63;26.27;;;;;;;2.80;nan;99627.97;5029082;28;20040;-71
2021/12/10 09:11:18;;;;;;;54.45;25.58;;;;;;;2.81;nan;99618.41;5029313;28;20111;-69
2021/12/10 09:14:07;;;;;;;66.97;31.00;;;;;;;2.82;nan;99620.00;5030403;28;20034;-69
2021/12/10 09:16:55;;;;;;;60.42;27.00;;;;;;;2.79;nan;99610.78;5031458;28;20037;-70
2021/12/10 09:19:41;;;;;;;65.53;27.03;;;;;;;2.82;nan;99602.59;5030343;28;20041;-70
2021/12/10 09:22:27;;;;;;;56.53;25.33;;;;;;;2.90;nan;99619.84;5019566;28;20543;-69
2021/12/10 09:25:16;;;;;;;53.08;23.77;;;;;;;2.93;nan;99630.66;5029362;28;20121;-68
2021/12/10 09:28:02;;;;;;;53.93;24.57;;;;;;;2.91;nan;99624.84;5037241;28;20039;-67
2021/12/10 09:30:51;;;;;;;50.83;23.63;;;;;;;2.92;nan;99620.44;5041063;28;20628;-67
2021/12/10 09:33:38;;;;;;;50.95;23.80;;;;;;;2.91;nan;99611.03;5027962;28;20112;-67
2021/12/10 09:36:25;;;;;;;49.30;23.02;;;;;;;2.86;nan;99600.41;5025175;28;20046;-67
2021/12/10 09:39:14;;;;;;;56.03;22.98;;;;;;;2.90;nan;99610.25;5028080;28;20037;-68
2021/12/10 09:42:02;;;;;;;55.17;23.75;;;;;;;2.86;nan;99603.81;5011549;28;20117;-67
2021/12/10 09:44:53;;;;;;;53.50;23.20;;;;;;;2.87;nan;99608.00;5024023;28;20047;-70
2021/12/10 09:47:40;;;;;;;52.38;23.40;;;;;;;2.88;nan;99609.63;5030651;28;20034;-68
2021/12/10 09:50:32;;;;;;;54.90;23.98;;;;;;;2.85;nan;99598.81;5029840;28;20064;-69
2021/12/10 09:53:18;;;;;;;59.85;25.02;;;;;;;2.85;nan;99593.59;5031484;28;20112;-69
2021/12/10 09:56:05;;;;;;;49.25;23.98;;;;;;;2.84;nan;99592.00;5029944;28;20037;-69
2021/12/10 09:58:53;;;;;;;52.05;24.70;;;;;;;2.74;nan;99582.78;5032716;28;20515;-69
2021/12/10 10:01:42;;;;;;;49.35;23.52;;;;;;;2.83;nan;99588.63;5026270;28;20081;-68
2021/12/10 10:04:33;;;;;;;50.15;21.60;;;;;;;2.83;nan;99580.81;5030601;28;20052;-69
2021/12/10 10:07:26;;;;;;;49.80;23.83;;;;;;;2.79;nan;99576.19;5030448;28;20096;-68
2021/12/10 10:10:15;;;;;;;45.67;20.95;;;;;;;2.87;nan;99581.22;5032225;28;20049;-69
2021/12/10 10:13:05;;;;;;;52.00;23.55;;;;;;;2.85;nan;99575.41;5029463;28;20406;-69
2021/12/10 10:15:55;;;;;;;60.78;24.90;;;;;;;2.82;nan;99575.78;5032541;28;20116;-69
2021/12/10 10:18:44;;;;;;;54.13;23.85;;;;;;;2.83;nan;99580.03;5028217;28;20037;-69
2021/12/10 10:21:37;;;;;;;63.53;24.00;;;;;;;2.81;nan;99575.00;5028369;28;20043;-70
2021/12/10 10:24:26;;;;;;;58.35;24.23;;;;;;;2.70;nan;99563.34;5026445;28;20033;-75
2021/12/10 10:27:16;;;;;;;53.78;23.15;;;;;;;2.72;nan;99560.56;5033246;28;20128;-75
2021/12/10 10:30:11;;;;;;;52.70;23.17;;;;;;;2.81;nan;99571.59;5033642;28;20042;-75
2021/12/10 10:33:01;;;;;;;58.03;26.25;;;;;;;2.80;nan;99567.38;5039139;28;20621;-75
2021/12/10 10:35:51;;;;;;;64.28;25.48;;;;;;;2.82;nan;99570.59;5032673;28;20058;-75
2021/12/10 10:38:37;;;;;;;58.00;25.05;;;;;;;2.83;nan;99572.22;5044882;28;20030;-75
2021/12/10 10:41:27;;;;;;;61.83;27.08;;;;;;;2.70;nan;99567.75;5034314;28;20029;-75
2021/12/10 10:44:17;;;;;;;59.30;25.95;;;;;;;2.73;nan;99562.97;5028947;28;20045;-75
2021/12/10 10:47:04;;;;;;;63.17;25.95;;;;;;;2.74;nan;99577.56;5025433;28;20049;-75
2021/12/10 10:49:58;;;;;;;53.60;22.88;;;;;;;2.72;nan;99566.56;5035921;28;20029;-75
2021/12/10 10:52:48;;;;;;;53.80;23.30;;;;;;;2.54;nan;99538.50;5045271;28;20025;-77
2021/12/10 10:55:38;;;;;;;49.30;22.05;;;;;;;2.72;nan;99568.38;5031999;28;20030;-72
2021/12/10 10:58:30;;;;;;;54.75;23.00;;;;;;;2.70;nan;99559.94;5033441;28;20120;-73
2021/12/10 11:01:23;;;;;;;59.40;23.58;;;;;;;2.67;nan;99553.34;5038966;28;20052;-74
2021/12/10 11:04:18;;;;;;;56.75;24.73;;;;;;;2.36;nan;99496.66;5039271;28;20103;-76
2021/12/10 11:07:15;;;;;;;58.78;24.25;;;;;;;2.77;nan;99556.38;5033550;28;20045;-74
2021/12/10 11:10:05;;;;;;;56.67;24.55;;;;;;;2.62;nan;99532.34;5032034;28;20118;-75
2021/12/10 11:12:52;;;;;;;61.88;27.95;;;;;;;2.69;nan;99533.16;5018356;28;20042;-73
2021/12/10 11:15:40;;;;;;;57.53;24.77;;;;;;;2.83;nan;99551.41;5026519;28;20049;-73
2021/12/10 11:18:37;;;;;;;42.35;18.38;;;;;;;2.89;nan;99555.81;5032337;28;20403;-74
2021/12/10 11:21:34;;;;;;;60.20;24.38;;;;;;;2.91;nan;99552.03;5031814;28;20044;-73
2021/12/10 11:24:46;;;;;;;59.42;26.15;;;;;;;2.92;nan;99535.44;5031802;28;20041;-75
2021/12/10 11:27:37;;;;;;;60.10;25.48;;;;;;;2.92;nan;99538.03;5031096;28;20040;-72
2021/12/10 11:30:26;;;;;;;61.95;26.33;;;;;;;3.04;nan;99540.88;5027190;28;20384;-73
2021/12/10 11:33:18;;;;;;;63.67;27.57;;;;;;;3.06;nan;99546.66;5032662;28;20045;-74
2021/12/10 11:36:14;;;;;;;64.18;27.73;;;;;;;3.06;nan;99536.25;5030445;28;20048;-72
2021/12/10 11:39:01;;;;;;;66.60;28.60;;;;;;;3.02;nan;99535.06;5029611;28;20037;-74
2021/12/10 11:41:46;;;;;;;65.68;28.58;;;;;;;3.04;nan;99529.66;5023075;28;20033;-74
2021/12/10 11:45:04;;;;;;;67.38;29.13;;;;;;;3.07;nan;99530.06;5032851;28;20045;-72
2021/12/10 11:47:51;;;;;;;56.55;24.92;;;;;;;3.04;nan;99520.06;5020029;28;20415;-74
2021/12/10 11:50:57;;;;;;;57.45;25.92;;;;;;;3.08;nan;99521.25;5033437;28;20033;-73
2021/12/10 11:53:59;;;;;;;54.58;23.67;;;;;;;3.13;nan;99525.88;5037513;28;20036;-71
2021/12/10 11:56:49;;;;;;;57.08;23.70;;;;;;;3.17;nan;99527.09;5043712;28;20562;-72
2021/12/10 11:59:58;;;;;;;52.25;22.92;;;;;;;3.22;nan;99523.91;5029571;28;20034;-70
2021/12/10 12:03:08;;;;;;;51.90;23.35;;;;;;;3.24;nan;99519.31;5033172;28;20045;-72
2021/12/10 12:05:54;;;;;;;47.60;21.58;;;;;;;3.15;nan;99505.66;5029273;28;20124;-73
2021/12/10 12:08:39;;;;;;;48.00;21.73;;;;;;;3.22;nan;99518.69;5031148;28;20037;-71
2021/12/10 12:11:25;;;;;;;47.67;21.52;;;;;;;3.16;nan;99510.69;5027599;28;20495;-75
2021/12/10 12:14:25;;;;;;;46.22;21.05;;;;;;;3.25;nan;99519.09;5023453;28;20088;-73
2021/12/10 12:17:44;;;;;;;39.30;19.10;;;;;;;3.30;nan;99518.50;5047641;28;20044;-73
2021/12/10 12:20:52;;;;;;;46.58;21.52;;;;;;;3.27;nan;99519.69;5022581;28;20025;-73
2021/12/10 12:26:42;;;;;;;51.63;24.00;;;;;;;3.27;nan;99516.28;5037931;28;20025;-73
2021/12/10 12:29:35;;;;;;;55.35;25.90;;;;;;;3.19;nan;99506.88;5030741;28;20099;-72
2021/12/10 12:32:32;;;;;;;49.92;23.73;;;;;;;3.24;nan;99514.09;5032517;28;20044;-72
2021/12/10 12:35:32;;;;;;;53.95;27.05;;;;;;;3.23;nan;99505.47;5025425;28;20057;-72
2021/12/10 12:38:29;;;;;;;65.82;31.95;;;;;;;3.19;nan;99491.28;5029271;28;20033;-72
2021/12/10 12:41:34;;;;;;;60.97;29.80;;;;;;;3.26;nan;99492.09;5031891;28;20033;-71
2021/12/10 12:44:20;;;;;;;54.65;25.50;;;;;;;3.33;nan;99497.28;5031102;28;20035;-73
2021/12/10 12:47:12;;;;;;;49.92;24.15;;;;;;;3.33;nan;99499.91;5031522;28;20123;-73
2021/12/10 12:50:16;;;;;;;49.47;23.30;;;;;;;3.28;nan;99484.06;5023941;28;20125;-73
2021/12/10 12:53:12;;;;;;;52.58;26.27;;;;;;;3.31;nan;99481.88;5026324;28;20041;-73
2021/12/10 12:56:07;;;;;;;59.97;27.40;;;;;;;3.31;nan;99473.28;5023893;28;20033;-73
2021/12/10 12:59:03;;;;;;;57.67;28.77;;;;;;;3.37;nan;99482.88;5021792;28;20040;-73
2021/12/10 13:01:59;;;;;;;55.03;26.10;;;;;;;3.35;nan;99466.66;5022803;28;20080;-73
2021/12/10 13:04:48;;;;;;;57.33;26.42;;;;;;;3.47;nan;99472.06;5021215;28;20553;-73
2021/12/10 13:07:36;;;;;;;58.85;27.17;;;;;;;3.43;nan;99474.28;5028924;28;20454;-73
2021/12/10 13:10:22;;;;;;;59.13;25.90;;;;;;;3.47;nan;99470.28;5020812;28;20033;-72
2021/12/10 13:13:22;;;;;;;55.95;25.02;;;;;;;3.50;nan;99477.66;5024557;28;20839;-73
2021/12/10 13:16:09;;;;;;;51.00;23.92;;;;;;;3.48;nan;99473.66;5021089;28;20414;-73
2021/12/10 13:18:55;;;;;;;50.35;22.55;;;;;;;3.53;nan;99477.25;5023301;28;20131;-73
2021/12/10 13:21:46;;;;;;;47.47;21.75;;;;;;;3.51;nan;99471.44;5030970;28;20583;-72
2021/12/10 13:24:34;;;;;;;50.65;23.15;;;;;;;3.46;nan;99462.66;5022303;28;20049;-72
2021/12/10 13:27:23;;;;;;;44.08;21.20;;;;;;;3.53;nan;99476.47;5027673;28;20033;-73
2021/12/10 13:30:35;;;;;;;43.45;20.95;;;;;;;3.54;nan;99483.25;5021945;28;20037;-73
2021/12/10 13:33:24;;;;;;;37.55;18.17;;;;;;;3.54;nan;99485.88;5029606;28;20499;-74
2021/12/10 13:36:11;;;;;;;;;;;;;;;3.51;nan;99491.47;5027979;28;20077;-74
2021/12/10 13:38:57;;;;;;;41.92;19.05;;;;;;;3.43;nan;99482.06;5024145;28;19921;-74